sensor_id;sensor_type;location;lat;lon;timestamp;temperature;humidity
75838;SHT30;64480;52.040;113.502;2022-12-18T00:02:35;-18.42;63.39
75838;SHT30;64480;52.040;113.502;2022-12-18T00:05:49;-18.40;62.59
75838;SHT30;64480;52.040;113.502;2022-12-18T00:09:02;-18.35;62.75
75838;SHT30;64480;52.040;113.502;2022-12-18T00:12:06;-18.42;62.57
75838;SHT30;64480;52.040;113.502;2022-12-18T00:15:17;-18.43;62.90
75838;SHT30;64480;52.040;113.502;2022-12-18T00:18:22;-18.37;62.95
75838;SHT30;64480;52.040;113.502;2022-12-18T00:21:27;-18.40;63.12
75838;SHT30;64480;52.040;113.502;2022-12-18T00:24:33;-18.28;63.11
75838;SHT30;64480;52.040;113.502;2022-12-18T00:27:36;-18.33;62.40
75838;SHT30;64480;52.040;113.502;2022-12-18T00:30:45;-18.37;62.49
75838;SHT30;64480;52.040;113.502;2022-12-18T00:34:03;-18.37;63.09
75838;SHT30;64480;52.040;113.502;2022-12-18T00:37:08;-18.35;62.71
75838;SHT30;64480;52.040;113.502;2022-12-18T00:40:25;-18.33;62.70
75838;SHT30;64480;52.040;113.502;2022-12-18T00:43:29;-18.43;63.16
75838;SHT30;64480;52.040;113.502;2022-12-18T00:46:47;-18.49;63.27
75838;SHT30;64480;52.040;113.502;2022-12-18T00:50:04;-18.33;63.65
75838;SHT30;64480;52.040;113.502;2022-12-18T00:53:10;-18.16;62.34
75838;SHT30;64480;52.040;113.502;2022-12-18T00:56:14;-18.29;62.43
75838;SHT30;64480;52.040;113.502;2022-12-18T00:59:31;-18.21;62.36
75838;SHT30;64480;52.040;113.502;2022-12-18T01:02:34;-18.21;63.12
75838;SHT30;64480;52.040;113.502;2022-12-18T01:05:43;-18.16;62.87
75838;SHT30;64480;52.040;113.502;2022-12-18T01:08:49;-18.19;62.04
75838;SHT30;64480;52.040;113.502;2022-12-18T01:12:06;-18.15;62.37
75838;SHT30;64480;52.040;113.502;2022-12-18T01:15:12;-18.09;62.10
75838;SHT30;64480;52.040;113.502;2022-12-18T01:18:17;-18.15;61.59
75838;SHT30;64480;52.040;113.502;2022-12-18T01:21:23;-18.14;61.66
75838;SHT30;64480;52.040;113.502;2022-12-18T01:24:28;-18.22;61.64
75838;SHT30;64480;52.040;113.502;2022-12-18T01:27:34;-18.19;61.43
75838;SHT30;64480;52.040;113.502;2022-12-18T01:30:55;-18.19;61.00
75838;SHT30;64480;52.040;113.502;2022-12-18T01:34:02;-18.25;61.28
75838;SHT30;64480;52.040;113.502;2022-12-18T01:37:16;-18.24;61.05
75838;SHT30;64480;52.040;113.502;2022-12-18T01:40:36;-18.26;61.28
75838;SHT30;64480;52.040;113.502;2022-12-18T01:43:48;-18.25;61.41
75838;SHT30;64480;52.040;113.502;2022-12-18T01:47:05;-18.25;61.80
75838;SHT30;64480;52.040;113.502;2022-12-18T01:50:22;-18.12;61.92
75838;SHT30;64480;52.040;113.502;2022-12-18T01:53:28;-18.04;61.36
75838;SHT30;64480;52.040;113.502;2022-12-18T01:56:45;-18.11;61.03
75838;SHT30;64480;52.040;113.502;2022-12-18T02:00:00;-17.95;61.54
75838;SHT30;64480;52.040;113.502;2022-12-18T02:03:16;-17.90;61.36
75838;SHT30;64480;52.040;113.502;2022-12-18T02:06:38;-17.83;61.79
75838;SHT30;64480;52.040;113.502;2022-12-18T02:10:13;-17.77;61.89
75838;SHT30;64480;52.040;113.502;2022-12-18T02:13:32;-17.74;61.28
75838;SHT30;64480;52.040;113.502;2022-12-18T02:16:53;-17.62;60.93
75838;SHT30;64480;52.040;113.502;2022-12-18T02:20:24;-17.66;60.44
75838;SHT30;64480;52.040;113.502;2022-12-18T02:27:11;-17.78;60.80
75838;SHT30;64480;52.040;113.502;2022-12-18T02:30:30;-17.90;60.01
75838;SHT30;64480;52.040;113.502;2022-12-18T02:33:43;-17.90;60.33
75838;SHT30;64480;52.040;113.502;2022-12-18T02:37:04;-17.90;61.02
75838;SHT30;64480;52.040;113.502;2022-12-18T02:40:32;-17.78;60.50
75838;SHT30;64480;52.040;113.502;2022-12-18T02:44:06;-17.70;60.33
75838;SHT30;64480;52.040;113.502;2022-12-18T02:47:34;-17.65;60.00
75838;SHT30;64480;52.040;113.502;2022-12-18T02:55:00;-17.43;60.10
75838;SHT30;64480;52.040;113.502;2022-12-18T02:58:30;-17.46;59.90
75838;SHT30;64480;52.040;113.502;2022-12-18T03:02:25;-17.52;59.82
75838;SHT30;64480;52.040;113.502;2022-12-18T03:05:53;-17.52;59.95
75838;SHT30;64480;52.040;113.502;2022-12-18T03:09:17;-17.50;60.11
75838;SHT30;64480;52.040;113.502;2022-12-18T03:12:58;-17.49;59.83
75838;SHT30;64480;52.040;113.502;2022-12-18T03:16:31;-17.48;59.50
75838;SHT30;64480;52.040;113.502;2022-12-18T03:19:56;-17.30;59.60
75838;SHT30;64480;52.040;113.502;2022-12-18T03:23:32;-17.25;58.70
75838;SHT30;64480;52.040;113.502;2022-12-18T03:27:06;-17.35;57.73
75838;SHT30;64480;52.040;113.502;2022-12-18T03:30:17;-17.31;58.24
75838;SHT30;64480;52.040;113.502;2022-12-18T03:33:55;-17.07;58.38
75838;SHT30;64480;52.040;113.502;2022-12-18T03:37:14;-16.94;57.14
75838;SHT30;64480;52.040;113.502;2022-12-18T03:40:21;-16.94;57.94
75838;SHT30;64480;52.040;113.502;2022-12-18T03:43:51;-16.92;57.51
75838;SHT30;64480;52.040;113.502;2022-12-18T03:47:15;-16.83;56.89
75838;SHT30;64480;52.040;113.502;2022-12-18T03:50:45;-16.82;56.84
75838;SHT30;64480;52.040;113.502;2022-12-18T03:54:06;-16.82;57.37
75838;SHT30;64480;52.040;113.502;2022-12-18T03:57:33;-16.80;57.33
75838;SHT30;64480;52.040;113.502;2022-12-18T04:00:52;-16.60;57.43
75838;SHT30;64480;52.040;113.502;2022-12-18T04:04:12;-16.62;56.48
75838;SHT30;64480;52.040;113.502;2022-12-18T04:07:34;-16.51;57.17
75838;SHT30;64480;52.040;113.502;2022-12-18T04:10:52;-16.52;56.60
75838;SHT30;64480;52.040;113.502;2022-12-18T04:14:11;-16.53;57.07
75838;SHT30;64480;52.040;113.502;2022-12-18T04:17:30;-16.46;56.87
75838;SHT30;64480;52.040;113.502;2022-12-18T04:20:57;-16.45;56.64
75838;SHT30;64480;52.040;113.502;2022-12-18T04:24:45;-16.34;56.84
75838;SHT30;64480;52.040;113.502;2022-12-18T04:28:14;-16.24;56.27
75838;SHT30;64480;52.040;113.502;2022-12-18T04:31:34;-16.34;56.34
75838;SHT30;64480;52.040;113.502;2022-12-18T04:34:52;-16.37;56.81
75838;SHT30;64480;52.040;113.502;2022-12-18T04:38:05;-16.35;56.71
75838;SHT30;64480;52.040;113.502;2022-12-18T04:41:15;-16.38;56.94
75838;SHT30;64480;52.040;113.502;2022-12-18T04:44:23;-16.39;57.13
75838;SHT30;64480;52.040;113.502;2022-12-18T04:47:35;-16.38;57.34
75838;SHT30;64480;52.040;113.502;2022-12-18T04:50:54;-16.38;57.09
75838;SHT30;64480;52.040;113.502;2022-12-18T04:54:03;-16.31;57.31
75838;SHT30;64480;52.040;113.502;2022-12-18T04:57:21;-16.17;57.21
75838;SHT30;64480;52.040;113.502;2022-12-18T05:00:40;-16.06;56.82
75838;SHT30;64480;52.040;113.502;2022-12-18T05:04:04;-15.92;56.41
75838;SHT30;64480;52.040;113.502;2022-12-18T05:07:16;-15.90;56.55
75838;SHT30;64480;52.040;113.502;2022-12-18T05:10:26;-15.96;56.44
75838;SHT30;64480;52.040;113.502;2022-12-18T05:13:41;-15.94;56.55
75838;SHT30;64480;52.040;113.502;2022-12-18T05:16:47;-15.89;56.24
75838;SHT30;64480;52.040;113.502;2022-12-18T05:20:16;-15.87;56.38
75838;SHT30;64480;52.040;113.502;2022-12-18T05:23:38;-15.87;56.50
75838;SHT30;64480;52.040;113.502;2022-12-18T05:26:58;-15.89;57.05
75838;SHT30;64480;52.040;113.502;2022-12-18T05:30:06;-15.99;57.12
75838;SHT30;64480;52.040;113.502;2022-12-18T05:33:26;-16.01;57.13
75838;SHT30;64480;52.040;113.502;2022-12-18T05:36:44;-16.09;57.27
75838;SHT30;64480;52.040;113.502;2022-12-18T05:40:02;-16.06;57.36
75838;SHT30;64480;52.040;113.502;2022-12-18T05:43:22;-16.03;57.37
75838;SHT30;64480;52.040;113.502;2022-12-18T05:46:41;-16.04;57.18
75838;SHT30;64480;52.040;113.502;2022-12-18T05:49:58;-15.99;57.33
75838;SHT30;64480;52.040;113.502;2022-12-18T05:53:20;-16.03;57.33
75838;SHT30;64480;52.040;113.502;2022-12-18T05:56:39;-15.96;57.56
75838;SHT30;64480;52.040;113.502;2022-12-18T06:00:03;-15.94;57.16
75838;SHT30;64480;52.040;113.502;2022-12-18T06:03:20;-15.97;57.12
75838;SHT30;64480;52.040;113.502;2022-12-18T06:06:38;-16.04;57.77
75838;SHT30;64480;52.040;113.502;2022-12-18T06:09:54;-15.99;57.79
75838;SHT30;64480;52.040;113.502;2022-12-18T06:13:11;-15.90;58.05
75838;SHT30;64480;52.040;113.502;2022-12-18T06:16:16;-15.93;57.36
75838;SHT30;64480;52.040;113.502;2022-12-18T06:19:24;-15.62;56.33
75838;SHT30;64480;52.040;113.502;2022-12-18T06:22:47;-15.82;56.32
75838;SHT30;64480;52.040;113.502;2022-12-18T06:26:12;-16.00;56.70
75838;SHT30;64480;52.040;113.502;2022-12-18T06:29:29;-15.99;56.93
75838;SHT30;64480;52.040;113.502;2022-12-18T06:32:48;-15.96;57.52
75838;SHT30;64480;52.040;113.502;2022-12-18T06:36:11;-15.99;57.55
75838;SHT30;64480;52.040;113.502;2022-12-18T06:39:31;-15.87;57.48
75838;SHT30;64480;52.040;113.502;2022-12-18T06:43:10;-15.83;57.42
75838;SHT30;64480;52.040;113.502;2022-12-18T06:46:34;-15.89;56.92
75838;SHT30;64480;52.040;113.502;2022-12-18T06:49:45;-15.90;57.50
75838;SHT30;64480;52.040;113.502;2022-12-18T06:53:09;-15.93;57.71
75838;SHT30;64480;52.040;113.502;2022-12-18T06:56:36;-15.89;58.18
75838;SHT30;64480;52.040;113.502;2022-12-18T06:59:40;-15.86;57.59
75838;SHT30;64480;52.040;113.502;2022-12-18T07:02:50;-15.82;58.55
75838;SHT30;64480;52.040;113.502;2022-12-18T07:05:57;-15.79;57.56
75838;SHT30;64480;52.040;113.502;2022-12-18T07:09:05;-15.73;57.60
75838;SHT30;64480;52.040;113.502;2022-12-18T07:12:11;-15.73;57.63
75838;SHT30;64480;52.040;113.502;2022-12-18T07:15:17;-15.75;57.91
75838;SHT30;64480;52.040;113.502;2022-12-18T07:18:34;-15.78;58.36
75838;SHT30;64480;52.040;113.502;2022-12-18T07:21:41;-15.79;58.26
75838;SHT30;64480;52.040;113.502;2022-12-18T07:24:58;-15.89;58.19
75838;SHT30;64480;52.040;113.502;2022-12-18T07:28:23;-16.00;58.06
75838;SHT30;64480;52.040;113.502;2022-12-18T07:31:36;-16.14;58.27
75838;SHT30;64480;52.040;113.502;2022-12-18T07:34:41;-16.18;58.89
75838;SHT30;64480;52.040;113.502;2022-12-18T07:38:00;-16.24;58.91
75838;SHT30;64480;52.040;113.502;2022-12-18T07:41:24;-16.27;58.92
75838;SHT30;64480;52.040;113.502;2022-12-18T07:45:00;-16.31;59.26
75838;SHT30;64480;52.040;113.502;2022-12-18T07:48:26;-16.38;59.24
75838;SHT30;64480;52.040;113.502;2022-12-18T07:51:44;-16.45;59.53
75838;SHT30;64480;52.040;113.502;2022-12-18T07:55:29;-16.51;59.69
75838;SHT30;64480;52.040;113.502;2022-12-18T08:06:14;-16.67;60.67
75838;SHT30;64480;52.040;113.502;2022-12-18T08:09:19;-16.67;61.43
75838;SHT30;64480;52.040;113.502;2022-12-18T08:12:27;-16.66;62.30
75838;SHT30;64480;52.040;113.502;2022-12-18T08:15:46;-16.66;62.26
75838;SHT30;64480;52.040;113.502;2022-12-18T08:18:57;-16.62;62.50
75838;SHT30;64480;52.040;113.502;2022-12-18T08:22:08;-16.59;61.82
75838;SHT30;64480;52.040;113.502;2022-12-18T08:25:17;-16.58;62.15
75838;SHT30;64480;52.040;113.502;2022-12-18T08:28:35;-16.62;62.77
75838;SHT30;64480;52.040;113.502;2022-12-18T08:31:46;-16.59;63.12
75838;SHT30;64480;52.040;113.502;2022-12-18T08:34:57;-16.62;62.42
75838;SHT30;64480;52.040;113.502;2022-12-18T08:38:18;-16.66;62.01
75838;SHT30;64480;52.040;113.502;2022-12-18T08:41:36;-16.67;62.97
75838;SHT30;64480;52.040;113.502;2022-12-18T08:44:53;-16.75;63.26
75838;SHT30;64480;52.040;113.502;2022-12-18T08:48:05;-16.82;63.30
75838;SHT30;64480;52.040;113.502;2022-12-18T08:51:15;-16.84;63.68
75838;SHT30;64480;52.040;113.502;2022-12-18T08:59:01;-16.86;64.76
75838;SHT30;64480;52.040;113.502;2022-12-18T09:02:19;-16.84;64.83
75838;SHT30;64480;52.040;113.502;2022-12-18T09:05:25;-16.99;64.25
75838;SHT30;64480;52.040;113.502;2022-12-18T09:08:39;-17.11;64.41
75838;SHT30;64480;52.040;113.502;2022-12-18T09:11:46;-17.17;64.80
75838;SHT30;64480;52.040;113.502;2022-12-18T09:15:04;-17.21;64.53
75838;SHT30;64480;52.040;113.502;2022-12-18T09:18:40;-17.31;64.16
75838;SHT30;64480;52.040;113.502;2022-12-18T09:22:17;-17.39;64.03
75838;SHT30;64480;52.040;113.502;2022-12-18T09:25:41;-17.45;64.17
75838;SHT30;64480;52.040;113.502;2022-12-18T09:28:59;-17.53;64.61
75838;SHT30;64480;52.040;113.502;2022-12-18T09:32:18;-17.55;64.87
75838;SHT30;64480;52.040;113.502;2022-12-18T09:36:08;-17.60;65.01
75838;SHT30;64480;52.040;113.502;2022-12-18T09:39:26;-17.66;65.34
75838;SHT30;64480;52.040;113.502;2022-12-18T09:42:38;-17.66;65.57
75838;SHT30;64480;52.040;113.502;2022-12-18T09:45:59;-17.67;65.56
75838;SHT30;64480;52.040;113.502;2022-12-18T09:49:18;-17.71;65.16
75838;SHT30;64480;52.040;113.502;2022-12-18T09:52:39;-17.78;65.33
75838;SHT30;64480;52.040;113.502;2022-12-18T09:56:04;-17.87;65.45
75838;SHT30;64480;52.040;113.502;2022-12-18T09:59:34;-17.84;65.75
75838;SHT30;64480;52.040;113.502;2022-12-18T10:02:43;-17.81;65.48
75838;SHT30;64480;52.040;113.502;2022-12-18T10:06:20;-17.78;65.95
75838;SHT30;64480;52.040;113.502;2022-12-18T10:10:01;-17.86;65.26
75838;SHT30;64480;52.040;113.502;2022-12-18T10:17:50;-18.05;64.41
75838;SHT30;64480;52.040;113.502;2022-12-18T10:21:03;-18.12;64.95
75838;SHT30;64480;52.040;113.502;2022-12-18T10:27:54;-18.18;64.70
75838;SHT30;64480;52.040;113.502;2022-12-18T10:31:07;-18.21;65.20
75838;SHT30;64480;52.040;113.502;2022-12-18T10:34:28;-18.21;65.58
75838;SHT30;64480;52.040;113.502;2022-12-18T10:38:02;-18.16;65.38
75838;SHT30;64480;52.040;113.502;2022-12-18T10:44:45;-18.25;64.95
75838;SHT30;64480;52.040;113.502;2022-12-18T10:47:49;-18.25;64.87
75838;SHT30;64480;52.040;113.502;2022-12-18T10:50:57;-18.26;64.62
75838;SHT30;64480;52.040;113.502;2022-12-18T10:54:20;-18.35;64.91
75838;SHT30;64480;52.040;113.502;2022-12-18T10:57:39;-18.32;64.92
75838;SHT30;64480;52.040;113.502;2022-12-18T11:01:05;-18.29;64.67
75838;SHT30;64480;52.040;113.502;2022-12-18T11:04:35;-18.37;64.50
75838;SHT30;64480;52.040;113.502;2022-12-18T11:08:05;-18.46;65.02
75838;SHT30;64480;52.040;113.502;2022-12-18T11:11:32;-18.50;64.79
75838;SHT30;64480;52.040;113.502;2022-12-18T11:14:52;-18.59;64.98
75838;SHT30;64480;52.040;113.502;2022-12-18T11:18:44;-18.56;64.44
75838;SHT30;64480;52.040;113.502;2022-12-18T11:22:31;-18.71;64.64
75838;SHT30;64480;52.040;113.502;2022-12-18T11:26:13;-18.70;64.68
75838;SHT30;64480;52.040;113.502;2022-12-18T11:30:06;-18.72;64.91
75838;SHT30;64480;52.040;113.502;2022-12-18T11:33:26;-18.72;64.82
75838;SHT30;64480;52.040;113.502;2022-12-18T11:36:46;-18.78;65.37
75838;SHT30;64480;52.040;113.502;2022-12-18T11:40:14;-18.82;65.09
75838;SHT30;64480;52.040;113.502;2022-12-18T11:43:55;-18.88;64.79
75838;SHT30;64480;52.040;113.502;2022-12-18T11:47:38;-18.99;65.64
75838;SHT30;64480;52.040;113.502;2022-12-18T11:51:00;-19.08;66.47
75838;SHT30;64480;52.040;113.502;2022-12-18T11:54:14;-19.06;67.11
75838;SHT30;64480;52.040;113.502;2022-12-18T12:07:44;-19.44;65.72
75838;SHT30;64480;52.040;113.502;2022-12-18T12:24:40;-19.34;65.28
75838;SHT30;64480;52.040;113.502;2022-12-18T12:31:59;-19.38;65.20
75838;SHT30;64480;52.040;113.502;2022-12-18T12:35:39;-19.49;64.71
75838;SHT30;64480;52.040;113.502;2022-12-18T12:39:11;-19.57;64.52
75838;SHT30;64480;52.040;113.502;2022-12-18T12:42:47;-19.63;64.22
75838;SHT30;64480;52.040;113.502;2022-12-18T12:46:14;-19.64;64.42
75838;SHT30;64480;52.040;113.502;2022-12-18T12:49:27;-19.58;64.55
75838;SHT30;64480;52.040;113.502;2022-12-18T12:56:18;-19.68;63.91
75838;SHT30;64480;52.040;113.502;2022-12-18T13:10:12;-19.85;64.52
75838;SHT30;64480;52.040;113.502;2022-12-18T13:13:20;-19.93;63.86
75838;SHT30;64480;52.040;113.502;2022-12-18T13:16:26;-19.99;64.21
75838;SHT30;64480;52.040;113.502;2022-12-18T13:19:43;-19.99;64.35
75838;SHT30;64480;52.040;113.502;2022-12-18T13:23:18;-19.95;64.51
75838;SHT30;64480;52.040;113.502;2022-12-18T13:26:37;-19.92;64.62
75838;SHT30;64480;52.040;113.502;2022-12-18T13:30:00;-19.83;65.12
75838;SHT30;64480;52.040;113.502;2022-12-18T13:36:29;-19.61;65.16
75838;SHT30;64480;52.040;113.502;2022-12-18T13:39:35;-19.54;64.81
75838;SHT30;64480;52.040;113.502;2022-12-18T13:42:50;-19.47;64.86
75838;SHT30;64480;52.040;113.502;2022-12-18T13:46:29;-19.43;64.03
75838;SHT30;64480;52.040;113.502;2022-12-18T13:49:46;-19.44;63.94
75838;SHT30;64480;52.040;113.502;2022-12-18T13:53:06;-19.44;64.20
75838;SHT30;64480;52.040;113.502;2022-12-18T13:56:26;-19.51;63.30
75838;SHT30;64480;52.040;113.502;2022-12-18T13:59:42;-19.50;63.21
75838;SHT30;64480;52.040;113.502;2022-12-18T14:02:46;-19.46;63.60
75838;SHT30;64480;52.040;113.502;2022-12-18T14:06:03;-19.60;63.06
75838;SHT30;64480;52.040;113.502;2022-12-18T14:09:17;-19.38;63.86
75838;SHT30;64480;52.040;113.502;2022-12-18T14:12:39;-19.41;62.52
75838;SHT30;64480;52.040;113.502;2022-12-18T14:16:06;-19.31;62.80
75838;SHT30;64480;52.040;113.502;2022-12-18T14:19:17;-19.26;62.70
75838;SHT30;64480;52.040;113.502;2022-12-18T14:22:36;-19.43;63.59
75838;SHT30;64480;52.040;113.502;2022-12-18T14:25:49;-19.44;64.86
75838;SHT30;64480;52.040;113.502;2022-12-18T14:32:31;-19.16;63.16
75838;SHT30;64480;52.040;113.502;2022-12-18T14:36:00;-19.15;63.38
75838;SHT30;64480;52.040;113.502;2022-12-18T14:39:17;-18.99;63.78
75838;SHT30;64480;52.040;113.502;2022-12-18T14:42:29;-19.00;63.30
75838;SHT30;64480;52.040;113.502;2022-12-18T14:45:39;-18.89;62.20
75838;SHT30;64480;52.040;113.502;2022-12-18T14:48:47;-19.03;60.63
75838;SHT30;64480;52.040;113.502;2022-12-18T14:52:01;-19.05;61.00
75838;SHT30;64480;52.040;113.502;2022-12-18T14:55:16;-19.08;61.44
75838;SHT30;64480;52.040;113.502;2022-12-18T14:58:23;-19.33;59.19
75838;SHT30;64480;52.040;113.502;2022-12-18T15:08:35;-19.81;60.02
75838;SHT30;64480;52.040;113.502;2022-12-18T15:11:59;-19.71;60.96
75838;SHT30;64480;52.040;113.502;2022-12-18T15:18:43;-19.68;60.46
75838;SHT30;64480;52.040;113.502;2022-12-18T15:21:53;-19.61;61.10
75838;SHT30;64480;52.040;113.502;2022-12-18T15:24:59;-19.47;61.68
75838;SHT30;64480;52.040;113.502;2022-12-18T15:28:19;-19.31;61.59
75838;SHT30;64480;52.040;113.502;2022-12-18T15:31:29;-19.26;60.36
75838;SHT30;64480;52.040;113.502;2022-12-18T15:34:33;-19.40;60.65
75838;SHT30;64480;52.040;113.502;2022-12-18T15:37:46;-19.16;62.08
75838;SHT30;64480;52.040;113.502;2022-12-18T15:40:52;-19.31;60.89
75838;SHT30;64480;52.040;113.502;2022-12-18T15:44:01;-19.40;60.82
75838;SHT30;64480;52.040;113.502;2022-12-18T15:47:12;-19.36;60.46
75838;SHT30;64480;52.040;113.502;2022-12-18T15:50:26;-19.53;59.03
75838;SHT30;64480;52.040;113.502;2022-12-18T15:53:32;-19.75;58.59
75838;SHT30;64480;52.040;113.502;2022-12-18T15:56:38;-19.83;59.39
75838;SHT30;64480;52.040;113.502;2022-12-18T16:00:02;-20.01;59.44
75838;SHT30;64480;52.040;113.502;2022-12-18T16:03:13;-20.10;59.60
75838;SHT30;64480;52.040;113.502;2022-12-18T16:06:17;-20.31;59.57
75838;SHT30;64480;52.040;113.502;2022-12-18T16:09:21;-20.40;60.03
75838;SHT30;64480;52.040;113.502;2022-12-18T16:12:30;-20.49;60.41
75838;SHT30;64480;52.040;113.502;2022-12-18T16:15:35;-20.55;60.76
75838;SHT30;64480;52.040;113.502;2022-12-18T16:18:38;-20.61;60.88
75838;SHT30;64480;52.040;113.502;2022-12-18T16:21:46;-20.64;61.12
75838;SHT30;64480;52.040;113.502;2022-12-18T16:24:53;-20.55;60.97
75838;SHT30;64480;52.040;113.502;2022-12-18T16:27:59;-20.48;60.64
75838;SHT30;64480;52.040;113.502;2022-12-18T16:31:04;-20.44;60.62
75838;SHT30;64480;52.040;113.502;2022-12-18T16:34:25;-20.47;60.51
75838;SHT30;64480;52.040;113.502;2022-12-18T16:37:36;-20.55;60.53
75838;SHT30;64480;52.040;113.502;2022-12-18T16:40:42;-20.51;60.85
75838;SHT30;64480;52.040;113.502;2022-12-18T16:44:07;-20.48;60.55
75838;SHT30;64480;52.040;113.502;2022-12-18T16:47:13;-20.66;60.83
75838;SHT30;64480;52.040;113.502;2022-12-18T16:50:18;-20.83;60.83
75838;SHT30;64480;52.040;113.502;2022-12-18T16:53:24;-20.95;61.01
75838;SHT30;64480;52.040;113.502;2022-12-18T16:56:29;-20.99;61.06
75838;SHT30;64480;52.040;113.502;2022-12-18T16:59:35;-21.08;60.91
75838;SHT30;64480;52.040;113.502;2022-12-18T17:02:39;-21.28;60.71
75838;SHT30;64480;52.040;113.502;2022-12-18T17:05:49;-21.45;60.58
75838;SHT30;64480;52.040;113.502;2022-12-18T17:08:57;-21.67;60.29
75838;SHT30;64480;52.040;113.502;2022-12-18T17:12:04;-21.83;60.78
75838;SHT30;64480;52.040;113.502;2022-12-18T17:15:11;-21.83;61.17
75838;SHT30;64480;52.040;113.502;2022-12-18T17:18:15;-21.86;61.44
75838;SHT30;64480;52.040;113.502;2022-12-18T17:21:21;-21.86;61.64
75838;SHT30;64480;52.040;113.502;2022-12-18T17:24:26;-21.87;61.37
75838;SHT30;64480;52.040;113.502;2022-12-18T17:27:36;-21.89;61.51
75838;SHT30;64480;52.040;113.502;2022-12-18T17:30:40;-21.93;61.75
75838;SHT30;64480;52.040;113.502;2022-12-18T17:33:47;-21.91;61.74
75838;SHT30;64480;52.040;113.502;2022-12-18T17:36:52;-21.83;61.64
75838;SHT30;64480;52.040;113.502;2022-12-18T17:39:57;-21.70;60.86
75838;SHT30;64480;52.040;113.502;2022-12-18T17:43:01;-21.63;60.50
75838;SHT30;64480;52.040;113.502;2022-12-18T17:46:08;-21.56;60.40
75838;SHT30;64480;52.040;113.502;2022-12-18T17:49:13;-21.52;60.42
75838;SHT30;64480;52.040;113.502;2022-12-18T17:52:22;-21.43;60.15
75838;SHT30;64480;52.040;113.502;2022-12-18T17:55:33;-21.41;60.29
75838;SHT30;64480;52.040;113.502;2022-12-18T17:58:36;-21.43;60.76
75838;SHT30;64480;52.040;113.502;2022-12-18T18:01:41;-21.49;60.65
75838;SHT30;64480;52.040;113.502;2022-12-18T18:04:47;-21.43;60.69
75838;SHT30;64480;52.040;113.502;2022-12-18T18:07:51;-21.35;60.35
75838;SHT30;64480;52.040;113.502;2022-12-18T18:10:57;-21.23;60.37
75838;SHT30;64480;52.040;113.502;2022-12-18T18:14:24;-21.23;59.99
75838;SHT30;64480;52.040;113.502;2022-12-18T18:17:30;-21.25;60.71
75838;SHT30;64480;52.040;113.502;2022-12-18T18:20:38;-21.21;60.68
75838;SHT30;64480;52.040;113.502;2022-12-18T18:23:43;-21.14;60.68
75838;SHT30;64480;52.040;113.502;2022-12-18T18:26:50;-21.11;59.95
75838;SHT30;64480;52.040;113.502;2022-12-18T18:29:54;-21.11;59.98
75838;SHT30;64480;52.040;113.502;2022-12-18T18:33:00;-21.17;60.39
75838;SHT30;64480;52.040;113.502;2022-12-18T18:36:10;-21.30;61.86
75838;SHT30;64480;52.040;113.502;2022-12-18T18:39:15;-21.21;62.52
75838;SHT30;64480;52.040;113.502;2022-12-18T18:42:18;-21.11;62.64
75838;SHT30;64480;52.040;113.502;2022-12-18T18:45:26;-20.99;62.95
75838;SHT30;64480;52.040;113.502;2022-12-18T18:48:35;-21.04;62.26
75838;SHT30;64480;52.040;113.502;2022-12-18T18:51:40;-20.99;62.76
75838;SHT30;64480;52.040;113.502;2022-12-18T18:54:55;-21.00;62.85
75838;SHT30;64480;52.040;113.502;2022-12-18T18:58:14;-20.99;62.77
75838;SHT30;64480;52.040;113.502;2022-12-18T19:01:20;-20.95;62.44
75838;SHT30;64480;52.040;113.502;2022-12-18T19:04:28;-21.00;62.00
75838;SHT30;64480;52.040;113.502;2022-12-18T19:07:35;-20.93;62.41
75838;SHT30;64480;52.040;113.502;2022-12-18T19:10:39;-20.87;61.09
75838;SHT30;64480;52.040;113.502;2022-12-18T19:13:58;-20.92;59.99
75838;SHT30;64480;52.040;113.502;2022-12-18T19:17:02;-21.02;59.33
75838;SHT30;64480;52.040;113.502;2022-12-18T19:20:09;-21.10;58.76
75838;SHT30;64480;52.040;113.502;2022-12-18T19:23:29;-21.28;58.44
75838;SHT30;64480;52.040;113.502;2022-12-18T19:26:33;-21.42;58.86
75838;SHT30;64480;52.040;113.502;2022-12-18T19:29:38;-21.49;59.33
75838;SHT30;64480;52.040;113.502;2022-12-18T19:32:42;-21.65;59.64
75838;SHT30;64480;52.040;113.502;2022-12-18T19:35:47;-21.79;59.85
75838;SHT30;64480;52.040;113.502;2022-12-18T19:38:55;-21.87;59.90
75838;SHT30;64480;52.040;113.502;2022-12-18T19:41:59;-21.94;60.41
75838;SHT30;64480;52.040;113.502;2022-12-18T19:45:04;-21.97;60.30
75838;SHT30;64480;52.040;113.502;2022-12-18T19:48:08;-21.93;60.21
75838;SHT30;64480;52.040;113.502;2022-12-18T19:51:18;-21.84;60.00
75838;SHT30;64480;52.040;113.502;2022-12-18T19:54:24;-21.98;59.77
75838;SHT30;64480;52.040;113.502;2022-12-18T19:57:30;-22.04;60.13
75838;SHT30;64480;52.040;113.502;2022-12-18T20:00:34;-22.02;60.58
75838;SHT30;64480;52.040;113.502;2022-12-18T20:03:45;-22.05;60.62
75838;SHT30;64480;52.040;113.502;2022-12-18T20:06:55;-22.08;60.55
75838;SHT30;64480;52.040;113.502;2022-12-18T20:10:05;-22.05;60.65
75838;SHT30;64480;52.040;113.502;2022-12-18T20:13:11;-22.07;60.49
75838;SHT30;64480;52.040;113.502;2022-12-18T20:16:16;-22.09;60.45
75838;SHT30;64480;52.040;113.502;2022-12-18T20:19:28;-22.09;60.40
75838;SHT30;64480;52.040;113.502;2022-12-18T20:22:34;-22.14;60.20
75838;SHT30;64480;52.040;113.502;2022-12-18T20:25:38;-22.09;60.40
75838;SHT30;64480;52.040;113.502;2022-12-18T20:28:52;-22.11;60.22
75838;SHT30;64480;52.040;113.502;2022-12-18T20:31:56;-22.08;60.44
75838;SHT30;64480;52.040;113.502;2022-12-18T20:35:07;-22.09;60.15
75838;SHT30;64480;52.040;113.502;2022-12-18T20:38:19;-22.07;60.53
75838;SHT30;64480;52.040;113.502;2022-12-18T20:41:26;-22.07;60.41
75838;SHT30;64480;52.040;113.502;2022-12-18T20:44:39;-22.02;60.25
75838;SHT30;64480;52.040;113.502;2022-12-18T20:47:44;-21.97;59.64
75838;SHT30;64480;52.040;113.502;2022-12-18T20:50:57;-21.94;59.64
75838;SHT30;64480;52.040;113.502;2022-12-18T20:54:04;-21.84;59.37
75838;SHT30;64480;52.040;113.502;2022-12-18T20:57:13;-21.81;59.31
75838;SHT30;64480;52.040;113.502;2022-12-18T21:00:17;-21.91;59.08
75838;SHT30;64480;52.040;113.502;2022-12-18T21:03:22;-22.00;59.17
75838;SHT30;64480;52.040;113.502;2022-12-18T21:06:26;-22.05;59.39
75838;SHT30;64480;52.040;113.502;2022-12-18T21:09:31;-22.04;59.60